Time;durP1;ratioP1;P1;durP2;ratioP2;P2;SDS_P1;SDS_P2;PMS_P1;PMS_P2;Temp;Humidity;BMP_temperature;BMP_pressure;BME280_temperature;BME280_humidity;BME280_pressure;Samples;Min_cycle;Max_cycle;Signal;HPM_P1;HPM_P2
2021/11/10 00:02:06;;;;;;;14.13;8.00;;;3.10;26.60;;;;;;5099748;27;20043;-68
2021/11/10 00:04:35;;;;;;;18.38;9.07;;;2.90;26.70;;;;;;5113351;27;20048;-68
2021/11/10 00:07:04;;;;;;;15.02;7.88;;;2.90;27.90;;;;;;5124950;27;20138;-65
2021/11/10 00:09:32;;;;;;;14.43;8.98;;;2.90;28.00;;;;;;5082261;28;20067;-68
2021/11/10 00:12:04;;;;;;;17.35;9.00;;;2.80;28.40;;;;;;5112669;27;20059;-68
2021/11/10 00:14:32;;;;;;;19.55;9.80;;;2.80;28.40;;;;;;5118309;27;20090;-67
2021/11/10 00:17:04;;;;;;;18.55;9.63;;;2.80;28.90;;;;;;5117930;27;20539;-66
2021/11/10 00:19:36;;;;;;;17.05;9.27;;;2.70;28.80;;;;;;5115912;27;20044;-66
2021/11/10 00:22:05;;;;;;;14.60;9.38;;;2.60;29.30;;;;;;5115493;27;20057;-66
2021/11/10 00:24:33;;;;;;;20.50;9.82;;;2.60;29.80;;;;;;5116399;27;20126;-66
2021/11/10 00:27:03;;;;;;;12.80;8.98;;;2.60;30.50;;;;;;5115458;27;20039;-66
2021/11/10 00:29:31;;;;;;;16.48;9.30;;;2.60;31.20;;;;;;5117587;27;20086;-67
2021/11/10 00:31:59;;;;;;;13.98;8.60;;;2.60;31.30;;;;;;5111407;27;20047;-67
2021/11/10 00:34:27;;;;;;;18.02;10.20;;;2.70;31.90;;;;;;5116360;27;20156;-66
2021/11/10 00:36:55;;;;;;;19.00;11.10;;;2.70;32.00;;;;;;5118395;27;20142;-66
2021/11/10 00:39:27;;;;;;;17.27;9.27;;;2.80;32.00;;;;;;5094619;28;20048;-67
2021/11/10 00:41:55;;;;;;;19.10;9.98;;;2.80;32.00;;;;;;5114300;27;20039;-67
2021/11/10 00:44:28;;;;;;;20.95;10.10;;;2.80;32.00;;;;;;5097856;28;20058;-66
2021/11/10 00:46:59;;;;;;;17.65;9.77;;;2.80;32.00;;;;;;5123413;27;20039;-67
2021/11/10 00:49:33;;;;;;;21.08;11.48;;;2.80;32.00;;;;;;5119378;27;20387;-66
2021/11/10 00:52:03;;;;;;;15.88;9.55;;;2.80;32.60;;;;;;5115876;27;20039;-67
2021/11/10 00:54:34;;;;;;;19.77;11.07;;;2.80;32.30;;;;;;5100656;27;20051;-67
2021/11/10 00:57:06;;;;;;;21.08;11.05;;;2.80;32.10;;;;;;5080976;27;20138;-66
2021/11/10 00:59:36;;;;;;;15.55;9.45;;;2.80;32.80;;;;;;5125624;27;20498;-66
2021/11/10 01:02:05;;;;;;;16.92;10.52;;;2.80;32.80;;;;;;5119833;27;20495;-67
2021/11/10 01:04:33;;;;;;;22.27;11.20;;;2.80;32.00;;;;;;5123101;27;20048;-67
2021/11/10 01:07:03;;;;;;;25.40;10.77;;;2.80;32.00;;;;;;5119932;27;20075;-66
2021/11/10 01:09:40;;;;;;;20.13;10.50;;;2.80;32.70;;;;;;5120833;27;20113;-67
2021/11/10 01:12:12;;;;;;;13.73;9.50;;;2.80;31.90;;;;;;5122529;27;20460;-67
2021/11/10 01:14:43;;;;;;;15.05;9.68;;;2.70;31.40;;;;;;5120813;27;20080;-67
2021/11/10 01:17:11;;;;;;;14.82;10.02;;;2.70;32.60;;;;;;5119950;27;20114;-67
2021/11/10 01:19:39;;;;;;;18.90;9.70;;;2.70;31.90;;;;;;5125937;27;20056;-67
2021/11/10 01:22:07;;;;;;;14.02;10.15;;;2.60;32.00;;;;;;5117209;27;20078;-66
2021/11/10 01:24:35;;;;;;;21.38;10.95;;;2.60;32.90;;;;;;5123121;27;20057;-67
2021/11/10 01:27:06;;;;;;;15.32;9.15;;;2.60;33.20;;;;;;5123255;27;20491;-67
2021/11/10 01:29:37;;;;;;;23.15;11.02;;;2.60;33.20;;;;;;5116595;27;20406;-67
2021/11/10 01:32:10;;;;;;;17.23;10.27;;;2.60;33.50;;;;;;5119212;27;20051;-67
2021/11/10 01:34:38;;;;;;;20.63;10.38;;;2.60;33.80;;;;;;5123115;27;20136;-66
2021/11/10 01:37:06;;;;;;;14.55;9.65;;;2.70;33.90;;;;;;5120360;27;20163;-66
2021/11/10 01:39:35;;;;;;;17.63;10.52;;;2.70;33.40;;;;;;5129088;27;20473;-67
2021/11/10 01:42:05;;;;;;;18.48;10.57;;;2.70;33.30;;;;;;5120483;27;20122;-67
2021/11/10 01:44:38;;;;;;;18.42;10.93;;;2.70;33.30;;;;;;5120004;27;20042;-67
2021/11/10 01:47:18;;;;;;;18.50;10.85;;;2.70;33.00;;;;;;5125638;27;20040;-66
2021/11/10 01:49:46;;;;;;;21.63;10.38;;;2.70;32.90;;;;;;5121125;27;20067;-67
2021/11/10 01:52:14;;;;;;;20.88;11.07;;;2.70;32.70;;;;;;5120178;27;20088;-67
2021/11/10 01:54:43;;;;;;;19.98;11.35;;;2.70;32.50;;;;;;5101614;27;20051;-67
2021/11/10 01:57:13;;;;;;;20.95;11.77;;;2.70;32.10;;;;;;5123550;27;20074;-67
2021/11/10 01:59:43;;;;;;;22.48;10.95;;;2.60;31.90;;;;;;5118867;27;20089;-67
2021/11/10 02:02:19;;;;;;;23.63;12.38;;;2.60;32.80;;;;;;5101670;27;20485;-66
2021/11/10 02:04:51;;;;;;;18.63;10.65;;;2.60;33.00;;;;;;5122737;27;20048;-66
2021/11/10 02:07:21;;;;;;;19.92;10.85;;;2.60;33.00;;;;;;5118883;27;20134;-66
2021/11/10 02:09:51;;;;;;;19.15;11.32;;;2.50;33.00;;;;;;5126566;27;20571;-66
2021/11/10 02:12:20;;;;;;;21.38;11.15;;;2.50;33.20;;;;;;5119784;27;20130;-66
2021/11/10 02:14:49;;;;;;;20.40;12.32;;;2.50;33.60;;;;;;5113922;27;20108;-66
2021/11/10 02:17:19;;;;;;;16.38;10.68;;;2.40;33.30;;;;;;5125382;27;20054;-67
2021/11/10 02:19:51;;;;;;;21.92;11.10;;;2.40;33.50;;;;;;5102238;27;20046;-67
2021/11/10 02:22:21;;;;;;;22.55;11.20;;;2.40;33.90;;;;;;5118219;27;20133;-67
2021/11/10 02:24:50;;;;;;;17.80;10.60;;;2.40;34.10;;;;;;5092690;27;20045;-67
2021/11/10 02:27:22;;;;;;;20.98;12.15;;;2.40;33.90;;;;;;5121024;27;20039;-67
2021/11/10 02:29:51;;;;;;;21.90;11.52;;;2.40;34.20;;;;;;5124487;27;20065;-67
2021/11/10 02:32:21;;;;;;;22.08;10.90;;;2.40;34.40;;;;;;5120234;27;20191;-67
2021/11/10 02:34:53;;;;;;;22.10;11.50;;;2.30;34.10;;;;;;5118051;27;20042;-67
2021/11/10 02:37:25;;;;;;;18.70;10.63;;;2.30;34.30;;;;;;5100822;27;20127;-67
2021/11/10 02:39:56;;;;;;;18.88;10.73;;;2.30;34.70;;;;;;5114644;27;20036;-68
2021/11/10 02:42:25;;;;;;;23.30;13.13;;;2.30;34.60;;;;;;5068623;27;20602;-67
2021/11/10 02:44:55;;;;;;;20.10;11.02;;;2.20;34.60;;;;;;5081945;27;20130;-67
2021/11/10 02:47:26;;;;;;;21.25;10.95;;;2.30;35.20;;;;;;5090159;27;20044;-68
2021/11/10 02:49:54;;;;;;;25.10;11.90;;;2.20;35.40;;;;;;5119731;27;20142;-67
2021/11/10 02:52:26;;;;;;;23.25;12.90;;;2.10;35.70;;;;;;5119021;27;20444;-67
2021/11/10 02:54:56;;;;;;;21.38;13.65;;;2.30;37.10;;;;;;5115201;27;20035;-68
2021/11/10 02:57:29;;;;;;;22.05;13.38;;;2.30;36.90;;;;;;5116445;27;20051;-67
2021/11/10 02:59:57;;;;;;;21.42;12.93;;;2.50;37.00;;;;;;5121799;27;20051;-68
2021/11/10 03:02:28;;;;;;;24.73;14.07;;;2.40;35.90;;;;;;5124255;27;20047;-67
2021/11/10 03:05:00;;;;;;;24.60;14.45;;;2.40;35.90;;;;;;5122050;27;20032;-66
2021/11/10 03:07:32;;;;;;;23.10;14.23;;;2.40;35.90;;;;;;5127414;27;20114;-66
2021/11/10 03:10:05;;;;;;;25.50;14.13;;;2.30;35.80;;;;;;5124212;27;20080;-68
2021/11/10 03:12:35;;;;;;;22.95;13.73;;;2.20;35.80;;;;;;5113701;27;20406;-67
2021/11/10 03:15:07;;;;;;;27.27;13.98;;;2.20;36.90;;;;;;5115903;27;20051;-69
2021/11/10 03:17:36;;;;;;;28.20;14.60;;;2.20;36.90;;;;;;5119896;27;20607;-68
2021/11/10 03:20:07;;;;;;;26.98;14.07;;;2.10;36.70;;;;;;5101935;27;20548;-68
2021/11/10 03:22:37;;;;;;;28.15;15.20;;;2.10;37.20;;;;;;5099909;27;20046;-68
2021/11/10 03:25:07;;;;;;;28.60;15.27;;;2.10;38.00;;;;;;5119305;27;20046;-68
2021/11/10 03:27:36;;;;;;;22.33;13.38;;;2.00;38.20;;;;;;5109239;27;20105;-68
2021/11/10 03:30:06;;;;;;;26.15;13.52;;;2.00;38.30;;;;;;5123385;27;20051;-68
2021/11/10 03:32:41;;;;;;;22.85;13.57;;;2.00;38.30;;;;;;5116541;27;20135;-68
2021/11/10 03:35:09;;;;;;;27.25;13.07;;;2.10;38.90;;;;;;5118429;27;20604;-68
2021/11/10 03:37:40;;;;;;;25.38;14.15;;;2.10;38.20;;;;;;5102764;27;20069;-67
2021/11/10 03:40:09;;;;;;;20.08;12.52;;;2.10;37.50;;;;;;5123631;27;20122;-68
2021/11/10 03:42:38;;;;;;;26.38;14.35;;;2.10;37.30;;;;;;5107074;27;20039;-67
2021/11/10 03:45:09;;;;;;;27.15;13.52;;;2.00;37.20;;;;;;5102888;27;20063;-68
2021/11/10 03:47:39;;;;;;;24.05;13.50;;;2.20;37.50;;;;;;5128517;27;20112;-68
2021/11/10 03:50:08;;;;;;;23.90;14.63;;;2.10;37.30;;;;;;5107343;27;20452;-68
2021/11/10 03:52:40;;;;;;;24.17;15.18;;;2.20;37.30;;;;;;5123423;27;20052;-68
2021/11/10 03:55:10;;;;;;;26.27;14.90;;;2.10;36.70;;;;;;5108520;27;20040;-68
2021/11/10 03:57:38;;;;;;;25.35;14.40;;;2.10;37.00;;;;;;5126490;27;20039;-69
2021/11/10 04:00:08;;;;;;;25.50;13.73;;;2.10;37.30;;;;;;5125706;27;20118;-68
2021/11/10 04:02:39;;;;;;;23.90;14.27;;;2.20;37.20;;;;;;5106925;27;20051;-68
2021/11/10 04:05:08;;;;;;;25.92;14.38;;;2.10;37.50;;;;;;5100683;27;20046;-68
2021/11/10 04:07:36;;;;;;;24.60;14.82;;;2.10;37.00;;;;;;5103589;27;20136;-68
2021/11/10 04:10:09;;;;;;;24.90;14.38;;;2.10;36.80;;;;;;5120460;27;20046;-67
2021/11/10 04:12:37;;;;;;;25.17;15.38;;;2.10;37.10;;;;;;5115607;27;20048;-67
2021/11/10 04:15:06;;;;;;;26.23;15.63;;;2.00;36.80;;;;;;5125516;27;20027;-67
2021/11/10 04:17:37;;;;;;;26.38;14.73;;;2.00;37.10;;;;;;5117289;27;20383;-67
2021/11/10 04:20:10;;;;;;;27.55;15.65;;;1.90;37.30;;;;;;5122179;27;20087;-67
2021/11/10 04:22:39;;;;;;;24.52;14.70;;;1.90;37.90;;;;;;5117053;27;20050;-67
2021/11/10 04:25:09;;;;;;;24.83;15.43;;;1.90;38.00;;;;;;5113444;27;20039;-67
2021/11/10 04:27:38;;;;;;;24.27;15.48;;;1.90;37.70;;;;;;5113108;27;20043;-68
2021/11/10 04:30:07;;;;;;;26.27;15.75;;;1.90;37.70;;;;;;5121741;27;20580;-68
2021/11/10 04:32:36;;;;;;;25.70;14.65;;;1.90;37.80;;;;;;5075778;27;20495;-66
2021/11/10 04:35:08;;;;;;;26.13;14.45;;;2.00;37.70;;;;;;5114039;27;20035;-68
2021/11/10 04:37:38;;;;;;;23.00;15.07;;;1.90;37.10;;;;;;5076867;27;20036;-65
2021/11/10 04:40:10;;;;;;;28.88;15.38;;;1.90;37.40;;;;;;5109193;27;20608;-68
2021/11/10 04:42:43;;;;;;;24.63;15.52;;;1.80;37.50;;;;;;5116099;27;20432;-67
2021/11/10 04:45:16;;;;;;;25.15;15.20;;;1.90;38.00;;;;;;5115467;27;20585;-67
2021/11/10 04:47:48;;;;;;;27.23;15.30;;;1.80;37.70;;;;;;5096849;28;20528;-66
2021/11/10 04:50:16;;;;;;;25.83;15.15;;;1.80;37.60;;;;;;5120459;27;20142;-67
2021/11/10 04:52:45;;;;;;;28.45;16.05;;;1.90;37.80;;;;;;5114571;27;20151;-67
2021/11/10 04:55:15;;;;;;;34.47;15.68;;;1.80;37.60;;;;;;5118781;27;20545;-68
2021/11/10 04:57:43;;;;;;;26.77;16.00;;;1.80;37.20;;;;;;5118211;27;20142;-68
2021/11/10 05:00:13;;;;;;;26.10;14.63;;;1.80;37.50;;;;;;5117925;27;20450;-68
2021/11/10 05:02:46;;;;;;;;;;;1.80;37.70;;;;;;5114930;27;20046;-67
2021/11/10 05:05:16;;;;;;;27.98;15.85;;;1.80;37.40;;;;;;5116059;28;19932;-68
2021/11/10 05:07:46;;;;;;;28.63;16.00;;;1.70;37.00;;;;;;5117173;28;20056;-67
2021/11/10 05:10:21;;;;;;;25.83;14.80;;;1.70;38.90;;;;;;5113875;27;20053;-67
2021/11/10 05:12:49;;;;;;;26.63;14.95;;;1.70;38.50;;;;;;5117614;27;20058;-68
2021/11/10 05:15:23;;;;;;;27.90;15.25;;;1.60;38.20;;;;;;5112733;28;20043;-67
2021/11/10 05:17:51;;;;;;;27.50;14.93;;;1.60;38.20;;;;;;5112835;27;20269;-67
2021/11/10 05:20:19;;;;;;;24.55;15.23;;;1.60;39.30;;;;;;5122890;27;20130;-67
2021/11/10 05:22:48;;;;;;;31.85;16.30;;;1.60;38.80;;;;;;5111817;27;20138;-67
2021/11/10 05:25:18;;;;;;;23.65;14.60;;;1.50;37.40;;;;;;5114118;28;20043;-67
2021/11/10 05:27:50;;;;;;;27.30;15.10;;;1.50;38.60;;;;;;5114233;27;20047;-67
2021/11/10 05:30:19;;;;;;;27.25;15.50;;;1.50;39.30;;;;;;5117944;27;20723;-67
2021/11/10 05:32:48;;;;;;;29.33;15.15;;;1.50;39.30;;;;;;5114852;27;20048;-68
2021/11/10 05:35:17;;;;;;;25.33;14.23;;;1.40;39.20;;;;;;5113365;27;20112;-67
2021/11/10 05:37:47;;;;;;;26.02;15.90;;;1.50;39.30;;;;;;5118981;27;20699;-67
2021/11/10 05:40:16;;;;;;;27.45;15.98;;;1.50;39.30;;;;;;5116967;27;20036;-68
2021/11/10 05:42:44;;;;;;;26.50;15.82;;;1.40;39.20;;;;;;5122032;27;20714;-67
2021/11/10 05:45:15;;;;;;;26.67;14.73;;;1.40;39.20;;;;;;5115586;27;20040;-67
2021/11/10 05:47:46;;;;;;;28.02;14.75;;;1.40;39.30;;;;;;5103490;27;20067;-67
2021/11/10 05:50:19;;;;;;;26.98;15.98;;;1.50;40.40;;;;;;5120878;27;20046;-67
2021/11/10 05:52:48;;;;;;;26.98;15.30;;;1.60;40.60;;;;;;5120173;27;20042;-68
2021/11/10 05:55:17;;;;;;;29.10;16.27;;;1.60;40.70;;;;;;5117579;27;20143;-67
2021/11/10 05:57:50;;;;;;;32.70;17.95;;;1.60;40.70;;;;;;5105908;27;20031;-68
2021/11/10 06:00:25;;;;;;;30.00;17.63;;;1.70;41.10;;;;;;5122577;27;20049;-67
2021/11/10 06:02:56;;;;;;;28.75;17.02;;;1.70;40.80;;;;;;5102159;27;20040;-67
2021/11/10 06:05:26;;;;;;;33.10;17.00;;;1.70;40.50;;;;;;5117039;27;20047;-67
2021/11/10 06:07:55;;;;;;;30.52;17.30;;;1.70;40.20;;;;;;5122964;27;20042;-67
2021/11/10 06:10:24;;;;;;;32.20;17.35;;;1.80;39.90;;;;;;5123327;27;20043;-67
2021/11/10 06:12:53;;;;;;;29.05;17.20;;;1.80;39.50;;;;;;5118275;27;20090;-66
2021/11/10 06:15:27;;;;;;;30.80;18.00;;;1.80;39.50;;;;;;5121738;27;20043;-68
2021/11/10 06:17:59;;;;;;;40.58;16.90;;;1.80;39.60;;;;;;5117856;27;20042;-68
2021/11/10 06:20:29;;;;;;;29.58;16.50;;;1.80;39.50;;;;;;5118660;27;20050;-66
2021/11/10 06:22:58;;;;;;;33.47;16.90;;;1.70;39.40;;;;;;5121034;27;20212;-67
2021/11/10 06:25:25;;;;;;;29.35;16.27;;;1.80;39.50;;;;;;5118980;27;20096;-67
2021/11/10 06:27:53;;;;;;;33.03;17.23;;;1.80;39.50;;;;;;5116153;27;20150;-67
2021/11/10 06:30:24;;;;;;;32.92;16.48;;;1.80;39.50;;;;;;5118395;27;20111;-66
2021/11/10 06:32:53;;;;;;;30.75;16.67;;;1.90;39.60;;;;;;5119060;27;20042;-67
2021/11/10 06:35:23;;;;;;;28.98;16.35;;;1.90;39.50;;;;;;5118111;27;20070;-67
2021/11/10 06:37:55;;;;;;;30.27;16.83;;;1.90;39.50;;;;;;5114697;27;20035;-67
2021/11/10 06:40:24;;;;;;;27.50;15.43;;;1.90;38.80;;;;;;5117804;27;20055;-68
2021/11/10 06:42:59;;;;;;;25.35;15.48;;;1.90;39.10;;;;;;5100768;27;20489;-68
2021/11/10 06:45:33;;;;;;;;;;;2.00;38.60;;;;;;5115179;27;20153;-68
2021/11/10 06:48:04;;;;;;;31.50;16.92;;;2.00;38.10;;;;;;5116864;27;19928;-67
2021/11/10 06:50:33;;;;;;;26.75;17.77;;;2.00;37.50;;;;;;5119523;27;20067;-68
2021/11/10 06:53:01;;;;;;;31.75;17.08;;;2.00;36.90;;;;;;5118138;27;20143;-67
2021/11/10 06:55:29;;;;;;;36.47;17.30;;;2.00;36.80;;;;;;5117455;27;20094;-67
2021/11/10 06:57:57;;;;;;;31.23;16.27;;;2.10;36.80;;;;;;5114112;27;20096;-67
2021/11/10 07:00:25;;;;;;;32.67;16.85;;;2.20;37.00;;;;;;5119998;27;20510;-66
2021/11/10 07:02:53;;;;;;;27.15;16.05;;;2.30;36.20;;;;;;5115597;27;20065;-67
2021/11/10 07:05:23;;;;;;;31.02;16.55;;;2.40;35.40;;;;;;5117216;27;20878;-67
2021/11/10 07:07:51;;;;;;;29.67;15.98;;;2.40;34.40;;;;;;5100965;27;20125;-67
2021/11/10 07:10:21;;;;;;;28.17;16.52;;;2.40;33.80;;;;;;5114478;27;20211;-67
2021/11/10 07:12:50;;;;;;;28.70;16.80;;;2.50;33.40;;;;;;5117639;27;20054;-66
2021/11/10 07:15:18;;;;;;;23.77;15.55;;;2.50;33.10;;;;;;5120619;27;20039;-66
2021/11/10 07:17:46;;;;;;;31.95;17.25;;;2.50;32.10;;;;;;5097208;27;20047;-67
2021/11/10 07:20:19;;;;;;;32.03;16.10;;;2.60;31.90;;;;;;5116238;27;20063;-68
2021/11/10 07:22:52;;;;;;;31.08;16.50;;;2.60;31.80;;;;;;5120753;27;20039;-66
2021/11/10 07:25:25;;;;;;;;;;;2.60;30.70;;;;;;5115414;27;20039;-67
2021/11/10 07:27:56;;;;;;;31.52;15.65;;;2.60;31.70;;;;;;5120261;27;19926;-68
2021/11/10 07:30:27;;;;;;;27.63;15.85;;;2.80;30.00;;;;;;5124914;27;20053;-68
2021/11/10 07:33:00;;;;;;;25.50;15.10;;;2.80;28.40;;;;;;5113027;27;20051;-67
2021/11/10 07:35:28;;;;;;;25.83;14.60;;;2.90;28.40;;;;;;5125218;27;20470;-68
2021/11/10 07:38:02;;;;;;;24.08;15.48;;;3.00;27.90;;;;;;5121859;27;20039;-67
2021/11/10 07:40:31;;;;;;;31.35;14.98;;;3.10;26.00;;;;;;5098656;27;20043;-67
2021/11/10 07:43:00;;;;;;;29.23;16.38;;;3.10;25.30;;;;;;5125427;27;20042;-67
2021/11/10 07:45:33;;;;;;;25.13;15.60;;;3.10;25.80;;;;;;5120767;27;20063;-67
2021/11/10 07:48:06;;;;;;;26.25;15.07;;;3.10;25.40;;;;;;5121079;27;20053;-69
2021/11/10 07:50:35;;;;;;;28.13;14.48;;;3.20;25.30;;;;;;5127574;27;20099;-68
2021/11/10 07:53:05;;;;;;;27.10;15.73;;;3.30;24.70;;;;;;5123524;27;20039;-67
2021/11/10 07:55:33;;;;;;;28.77;14.98;;;3.30;22.70;;;;;;5101659;27;20107;-67
2021/11/10 07:58:02;;;;;;;24.25;14.15;;;3.40;23.40;;;;;;5124048;27;20501;-67
2021/11/10 08:00:38;;;;;;;23.98;13.50;;;3.60;22.60;;;;;;5125552;27;20062;-67
2021/11/10 08:03:10;;;;;;;25.45;15.05;;;3.60;22.10;;;;;;5121871;27;20558;-67
2021/11/10 08:05:38;;;;;;;28.05;14.57;;;3.60;21.20;;;;;;5118947;27;20043;-67
2021/11/10 08:08:08;;;;;;;25.63;16.20;;;3.60;20.30;;;;;;5122828;27;20050;-67
2021/11/10 08:10:53;;;;;;;31.67;16.05;;;3.70;21.00;;;;;;5112090;27;20487;-67
2021/11/10 08:13:26;;;;;;;23.52;14.85;;;3.90;20.70;;;;;;5119652;27;20548;-67
2021/11/10 08:15:58;;;;;;;27.50;15.15;;;3.90;20.10;;;;;;5122473;27;20046;-67
2021/11/10 08:18:30;;;;;;;30.20;15.25;;;4.00;19.20;;;;;;5118236;27;20904;-67
2021/11/10 08:20:58;;;;;;;22.48;13.25;;;4.00;18.70;;;;;;5124583;27;20112;-67
2021/11/10 08:23:28;;;;;;;30.52;16.67;;;4.00;17.40;;;;;;5119557;27;20055;-67
2021/11/10 08:25:57;;;;;;;20.85;13.75;;;4.10;17.40;;;;;;5122297;27;20081;-67
2021/11/10 08:28:27;;;;;;;25.10;14.07;;;4.20;17.00;;;;;;5124573;27;20074;-67
2021/11/10 08:30:56;;;;;;;27.55;14.07;;;4.20;16.10;;;;;;5127664;27;20091;-66
2021/11/10 08:33:35;;;;;;;27.33;14.75;;;4.20;16.30;;;;;;5118499;27;20061;-66
2021/11/10 08:36:04;;;;;;;25.98;14.40;;;4.40;15.80;;;;;;5128511;27;20074;-67
2021/11/10 08:38:34;;;;;;;27.85;14.70;;;4.50;16.00;;;;;;5127809;27;20043;-67
2021/11/10 08:41:05;;;;;;;26.15;14.13;;;4.40;15.70;;;;;;5124304;27;20040;-67
2021/11/10 08:43:34;;;;;;;23.90;14.63;;;4.50;15.80;;;;;;5121221;28;20055;-67
2021/11/10 08:46:02;;;;;;;22.15;14.60;;;4.50;15.20;;;;;;5124480;27;20073;-67
2021/11/10 08:48:30;;;;;;;24.90;14.63;;;4.70;15.00;;;;;;5122753;27;20047;-67
2021/11/10 08:50:58;;;;;;;24.10;14.55;;;4.80;14.70;;;;;;5122980;28;20479;-67
2021/11/10 08:53:28;;;;;;;23.27;14.52;;;4.90;14.40;;;;;;5122099;27;20049;-67
2021/11/10 08:56:03;;;;;;;24.33;14.00;;;4.80;14.60;;;;;;5120932;27;20094;-67
2021/11/10 08:58:32;;;;;;;29.52;15.27;;;4.90;14.00;;;;;;5126224;27;20050;-67
2021/11/10 09:01:00;;;;;;;25.08;14.90;;;5.20;13.90;;;;;;5122983;27;20121;-67
2021/11/10 09:03:31;;;;;;;25.08;14.10;;;5.10;12.00;;;;;;5120676;27;20606;-66
2021/11/10 09:06:02;;;;;;;25.80;14.23;;;5.20;12.50;;;;;;5121419;27;20043;-67
2021/11/10 09:08:31;;;;;;;23.73;14.20;;;5.20;12.30;;;;;;5101244;27;20495;-67
2021/11/10 09:11:03;;;;;;;27.38;13.55;;;5.20;13.10;;;;;;5119616;27;20248;-68
2021/11/10 09:13:31;;;;;;;25.08;14.60;;;5.10;12.70;;;;;;5127220;27;20099;-67
2021/11/10 09:16:03;;;;;;;24.38;14.98;;;5.10;12.70;;;;;;5120959;27;20067;-66
2021/11/10 09:18:31;;;;;;;30.92;15.15;;;5.10;12.70;;;;;;5130818;27;20031;-67
2021/11/10 09:21:00;;;;;;;26.33;14.65;;;5.10;13.30;;;;;;5128224;27;20049;-68
2021/11/10 09:23:27;;;;;;;24.88;14.48;;;5.10;12.70;;;;;;5129418;27;20714;-67
2021/11/10 09:25:55;;;;;;;25.90;14.38;;;5.00;12.90;;;;;;5106460;27;20492;-68
2021/11/10 09:28:26;;;;;;;27.17;14.88;;;5.00;14.30;;;;;;5118849;27;20055;-67
2021/11/10 09:30:54;;;;;;;29.40;15.00;;;5.10;13.80;;;;;;5124056;27;21569;-67
2021/11/10 09:33:23;;;;;;;26.17;14.88;;;5.30;14.00;;;;;;5119866;27;20521;-67
2021/11/10 09:35:53;;;;;;;28.77;15.20;;;5.50;12.90;;;;;;5119070;27;20164;-67
2021/11/10 09:38:25;;;;;;;26.80;14.80;;;5.50;12.60;;;;;;5122243;27;20039;-67
2021/11/10 09:40:59;;;;;;;27.02;15.05;;;5.70;12.10;;;;;;5115446;27;20047;-67
2021/11/10 09:43:34;;;;;;;;;;;5.80;11.40;;;;;;5085762;27;20491;-69
2021/11/10 09:46:04;;;;;;;27.17;15.18;;;5.90;11.10;;;;;;5121175;27;20780;-67
2021/11/10 09:48:32;;;;;;;27.08;15.00;;;5.90;9.50;;;;;;5123617;27;20134;-67
2021/11/10 09:51:01;;;;;;;32.67;16.20;;;5.90;9.30;;;;;;5121088;27;20055;-67
2021/11/10 09:53:35;;;;;;;;;;;6.10;9.70;;;;;;5120199;27;20043;-67
2021/11/10 09:56:05;;;;;;;26.40;15.23;;;6.10;8.30;;;;;;5115614;27;20026;-67
2021/11/10 09:58:39;;;;;;;28.70;15.57;;;6.10;9.20;;;;;;5117867;27;20525;-66
2021/11/10 10:01:10;;;;;;;25.48;15.50;;;6.20;8.00;;;;;;5120553;27;20065;-67
2021/11/10 10:03:44;;;;;;;26.90;15.52;;;6.10;8.00;;;;;;5098370;27;20031;-66
2021/11/10 10:06:17;;;;;;;36.35;21.25;;;6.20;9.70;;;;;;5086777;27;20047;-67
2021/11/10 10:08:50;;;;;;;27.23;14.80;;;6.30;9.50;;;;;;5115581;27;20058;-68
2021/11/10 10:11:19;;;;;;;29.92;15.98;;;6.20;8.00;;;;;;5098286;27;20130;-66
2021/11/10 10:13:54;;;;;;;27.52;16.02;;;6.30;9.10;;;;;;5118192;27;20043;-67
2021/11/10 10:16:24;;;;;;;28.77;15.60;;;6.20;8.20;;;;;;5117998;27;20043;-67
2021/11/10 10:19:06;;;;;;;29.25;16.35;;;6.20;9.10;;;;;;5085781;27;20047;-67
2021/11/10 10:21:35;;;;;;;31.05;15.90;;;6.30;8.50;;;;;;5118667;27;20573;-68
2021/11/10 10:24:05;;;;;;;22.55;15.48;;;6.20;7.00;;;;;;5104207;27;20047;-67
2021/11/10 10:26:33;;;;;;;25.73;14.90;;;6.30;8.30;;;;;;5119525;27;20453;-68
2021/11/10 10:29:08;;;;;;;26.63;16.38;;;6.40;7.60;;;;;;5080850;27;20035;-67
2021/11/10 10:31:42;;;;;;;24.60;15.65;;;6.20;7.80;;;;;;5113303;27;20062;-67
2021/11/10 10:34:14;;;;;;;27.45;15.02;;;6.10;7.10;;;;;;5113842;27;20047;-67
2021/11/10 10:36:44;;;;;;;27.80;15.80;;;6.10;6.40;;;;;;5114742;27;20036;-67
2021/11/10 10:39:16;;;;;;;27.60;16.60;;;6.10;7.60;;;;;;5121927;27;20118;-67
2021/11/10 10:41:52;;;;;;;29.98;15.60;;;6.30;7.00;;;;;;5117582;27;20504;-67
2021/11/10 10:44:28;;;;;;;27.90;17.00;;;6.30;6.20;;;;;;5117982;27;20201;-67
2021/11/10 10:46:58;;;;;;;33.47;16.45;;;6.10;7.60;;;;;;5115571;27;20078;-67
2021/11/10 10:49:38;;;;;;;26.13;16.48;;;6.20;7.60;;;;;;5130160;27;20494;-67
2021/11/10 10:52:12;;;;;;;28.98;15.95;;;6.50;7.10;;;;;;5117730;27;20062;-67
2021/11/10 10:54:41;;;;;;;29.23;16.10;;;6.60;5.50;;;;;;5078395;27;20453;-66
2021/11/10 10:57:11;;;;;;;27.83;16.85;;;6.50;5.40;;;;;;5113060;27;20057;-67
2021/11/10 10:59:40;;;;;;;36.05;17.70;;;6.50;5.80;;;;;;5114289;27;20051;-67
2021/11/10 11:02:11;;;;;;;31.85;16.33;;;6.70;5.60;;;;;;5093290;27;20075;-67
2021/11/10 11:04:45;;;;;;;25.75;16.15;;;6.70;5.20;;;;;;5098385;27;20475;-66
2021/11/10 11:07:17;;;;;;;29.65;16.65;;;6.70;4.00;;;;;;5113032;27;20048;-66
2021/11/10 11:09:51;;;;;;;25.42;15.93;;;6.80;5.00;;;;;;5110266;27;20048;-67
2021/11/10 11:12:26;;;;;;;24.20;15.77;;;6.90;4.10;;;;;;5113122;27;20035;-66
2021/11/10 11:15:11;;;;;;;25.17;17.17;;;7.00;4.00;;;;;;5113214;27;20105;-66
2021/11/10 11:17:41;;;;;;;24.67;15.07;;;7.20;3.00;;;;;;5108847;27;20055;-67
2021/11/10 11:20:18;;;;;;;28.17;15.85;;;7.20;1.90;;;;;;5107790;27;20054;-66
2021/11/10 11:22:53;;;;;;;29.17;15.85;;;7.20;3.00;;;;;;5110387;27;20175;-67
2021/11/10 11:25:24;;;;;;;28.02;16.60;;;7.30;2.00;;;;;;5111969;27;20066;-65
2021/11/10 11:27:57;;;;;;;25.65;16.15;;;7.20;2.90;;;;;;5091767;27;20051;-66
2021/11/10 11:30:29;;;;;;;25.02;16.38;;;7.40;2.70;;;;;;5116547;27;20055;-66
2021/11/10 11:33:00;;;;;;;32.28;16.60;;;7.40;2.30;;;;;;5090614;27;20035;-66
2021/11/10 11:35:32;;;;;;;29.52;16.08;;;7.40;2.10;;;;;;5109514;27;20057;-67
2021/11/10 11:38:08;;;;;;;32.42;16.55;;;7.60;1.00;;;;;;5112008;27;20039;-66
2021/11/10 11:40:37;;;;;;;28.83;17.02;;;7.60;1.40;;;;;;5117973;27;20054;-67
2021/11/10 11:43:07;;;;;;;30.08;17.27;;;7.50;1.80;;;;;;5094650;27;20047;-66
2021/11/10 11:45:41;;;;;;;30.05;16.25;;;7.70;1.30;;;;;;5098133;27;20046;-66
2021/11/10 11:48:10;;;;;;;33.28;16.98;;;7.70;1.00;;;;;;5116415;27;20384;-67
2021/11/10 11:50:39;;;;;;;26.00;15.63;;;7.80;1.00;;;;;;5112429;27;20455;-66
2021/11/10 11:53:09;;;;;;;30.35;17.08;;;7.80;1.00;;;;;;5120494;27;20141;-67
2021/11/10 11:55:43;;;;;;;28.65;16.42;;;7.80;1.00;;;;;;5115107;27;20498;-67
2021/11/10 11:58:16;;;;;;;26.50;15.30;;;7.60;1.70;;;;;;5108332;27;20060;-66
2021/11/10 12:00:53;;;;;;;29.05;15.95;;;7.60;2.10;;;;;;5093296;28;20044;-66
2021/11/10 12:03:24;;;;;;;26.60;17.55;;;7.80;1.10;;;;;;5110598;27;20472;-67
2021/11/10 12:06:13;;;;;;;30.38;16.25;;;7.80;2.00;;;;;;5113337;27;20051;-67
2021/11/10 12:08:44;;;;;;;31.50;17.13;;;7.70;1.00;;;;;;5097220;27;20074;-67
2021/11/10 12:11:40;;;;;;;29.55;18.67;;;7.70;2.00;;;;;;5115404;27;20058;-66
2021/11/10 12:14:15;;;;;;;28.40;17.42;;;7.80;2.10;;;;;;5053783;27;20119;-68
2021/11/10 12:16:55;;;;;;;27.77;16.58;;;7.90;2.10;;;;;;5111532;27;20073;-67
2021/11/10 12:19:31;;;;;;;30.65;18.05;;;7.90;1.70;;;;;;5124199;27;20103;-66
2021/11/10 12:22:04;;;;;;;22.20;15.27;;;7.90;1.90;;;;;;5117364;27;20043;-67
2021/11/10 12:24:43;;;;;;;31.45;17.60;;;7.90;2.50;;;;;;5113470;27;20099;-67
2021/11/10 12:27:15;;;;;;;27.05;16.95;;;7.80;2.80;;;;;;5113425;27;20100;-67
2021/11/10 12:29:58;;;;;;;25.85;16.88;;;7.90;2.60;;;;;;5122179;27;20129;-67
2021/11/10 12:32:48;;;;;;;29.33;17.48;;;7.60;3.30;;;;;;5111773;27;20043;-67
2021/11/10 12:35:38;;;;;;;28.60;17.25;;;7.60;3.30;;;;;;5113660;27;20082;-67
2021/11/10 12:38:23;;;;;;;26.83;17.33;;;7.60;3.30;;;;;;5116313;27;20073;-67
2021/11/10 12:40:58;;;;;;;24.25;15.75;;;7.80;2.80;;;;;;5122129;27;20488;-67
2021/11/10 12:43:28;;;;;;;32.78;19.45;;;7.90;2.30;;;;;;5111624;27;20043;-67
2021/11/10 12:46:04;;;;;;;24.80;15.77;;;8.00;2.60;;;;;;5114959;27;20123;-67
2021/11/10 12:48:37;;;;;;;27.65;16.10;;;7.90;2.30;;;;;;5104569;28;20039;-66
2021/11/10 12:51:25;;;;;;;31.10;17.08;;;7.90;2.10;;;;;;5098463;27;20487;-67
2021/11/10 12:53:58;;;;;;;26.35;16.83;;;7.90;1.60;;;;;;5112502;28;20622;-66
2021/11/10 12:56:48;;;;;;;26.67;17.10;;;7.70;2.50;;;;;;5111628;27;20138;-67
2021/11/10 12:59:26;;;;;;;23.92;16.08;;;7.70;2.30;;;;;;5117153;27;20036;-67
2021/11/10 13:01:55;;;;;;;26.45;15.82;;;8.00;1.30;;;;;;5115308;28;21011;-67